Time;durP1;ratioP1;P1;durP2;ratioP2;P2;SDS_P1;SDS_P2;PMS_P1;PMS_P2;Temp;Humidity;BMP_temperature;BMP_pressure;BME280_temperature;BME280_humidity;BME280_pressure;Samples;Min_cycle;Max_cycle;Signal;HPM_P1;HPM_P2
2022/08/10 00:00:20;;;;;;;4.32;3.83;;;15.00;99.90;;;;;;5001023;28;20038;-70
2022/08/10 00:02:51;;;;;;;4.95;3.97;;;14.90;99.90;;;;;;4979803;28;20066;-70
2022/08/10 00:05:18;;;;;;;5.35;4.60;;;15.00;99.90;;;;;;4998564;28;20030;-70
2022/08/10 00:07:44;;;;;;;4.25;3.83;;;14.90;99.90;;;;;;4983967;28;20049;-70
2022/08/10 00:10:11;;;;;;;5.00;4.13;;;15.00;99.90;;;;;;5003046;28;20172;-71
2022/08/10 00:12:37;;;;;;;5.88;4.03;;;15.00;99.90;;;;;;5001076;28;20034;-70
2022/08/10 00:15:05;;;;;;;5.85;4.38;;;14.90;99.90;;;;;;5004577;28;20049;-70
2022/08/10 00:17:30;;;;;;;5.72;4.18;;;14.90;99.90;;;;;;5000110;28;20069;-70
2022/08/10 00:19:56;;;;;;;7.35;4.85;;;14.90;99.90;;;;;;5000886;28;20072;-70
2022/08/10 00:22:22;;;;;;;8.02;4.80;;;14.90;99.90;;;;;;4999611;28;20054;-70
2022/08/10 00:24:47;;;;;;;5.68;4.85;;;14.90;99.90;;;;;;5013809;28;20052;-70
2022/08/10 00:27:13;;;;;;;5.93;5.05;;;14.90;99.90;;;;;;5018255;28;20057;-70
2022/08/10 00:29:39;;;;;;;6.50;5.10;;;14.90;99.90;;;;;;5003130;28;20547;-70
2022/08/10 00:32:05;;;;;;;6.18;4.90;;;14.90;99.90;;;;;;5017714;28;20038;-70
2022/08/10 00:34:33;;;;;;;7.25;4.93;;;14.90;99.90;;;;;;4989942;28;20123;-70
2022/08/10 00:36:59;;;;;;;7.50;4.90;;;14.80;99.90;;;;;;5003203;28;20042;-70
2022/08/10 00:39:26;;;;;;;6.32;4.80;;;14.80;99.90;;;;;;4988581;28;20073;-70
2022/08/10 00:41:52;;;;;;;6.35;4.95;;;14.80;99.90;;;;;;4989203;28;20049;-70
2022/08/10 00:44:18;;;;;;;7.13;5.28;;;14.80;99.90;;;;;;5002655;28;20056;-70
2022/08/10 00:46:44;;;;;;;7.25;5.38;;;14.70;99.90;;;;;;4986533;28;20046;-70
2022/08/10 00:49:10;;;;;;;7.43;5.28;;;14.80;99.90;;;;;;4984038;28;20095;-70
2022/08/10 00:51:36;;;;;;;7.60;5.05;;;14.70;99.90;;;;;;5006955;28;20084;-70
2022/08/10 00:54:02;;;;;;;7.95;5.85;;;14.70;99.90;;;;;;4983713;28;20053;-70
2022/08/10 00:56:28;;;;;;;8.38;5.75;;;14.70;99.90;;;;;;5002965;28;20038;-70
2022/08/10 00:58:54;;;;;;;9.32;6.63;;;14.70;99.90;;;;;;4987108;28;20190;-70
2022/08/10 01:01:19;;;;;;;8.90;5.30;;;14.70;99.90;;;;;;4988874;28;20048;-70
2022/08/10 01:03:45;;;;;;;7.03;5.50;;;14.70;99.90;;;;;;5021443;28;20045;-70
2022/08/10 01:06:11;;;;;;;7.10;5.13;;;14.70;99.90;;;;;;5004537;28;20034;-70
2022/08/10 01:08:50;;;;;;;9.05;5.78;;;14.70;99.90;;;;;;5009705;28;20050;-70
2022/08/10 01:11:45;;;;;;;8.38;5.97;;;14.70;99.90;;;;;;4989591;28;20038;-70
2022/08/10 01:14:34;;;;;;;9.00;6.32;;;14.70;99.90;;;;;;4987908;28;20403;-70
2022/08/10 01:17:08;;;;;;;9.93;6.43;;;14.70;99.90;;;;;;4987418;28;20053;-70
2022/08/10 01:19:56;;;;;;;8.13;6.18;;;14.60;99.90;;;;;;5002868;28;20526;-70
2022/08/10 01:22:36;;;;;;;8.10;6.30;;;14.60;99.90;;;;;;4990445;28;20442;-70
2022/08/10 01:25:27;;;;;;;9.70;6.65;;;14.60;99.90;;;;;;4991885;28;20487;-70
2022/08/10 01:28:19;;;;;;;8.80;6.38;;;14.60;99.90;;;;;;5011571;28;20038;-70
2022/08/10 01:30:47;;;;;;;12.40;6.47;;;14.60;99.90;;;;;;5007240;28;20077;-70
2022/08/10 01:33:24;;;;;;;8.40;6.00;;;14.60;99.90;;;;;;4975594;28;20048;-70
2022/08/10 01:36:15;;;;;;;9.07;5.75;;;14.60;99.90;;;;;;4990795;28;20046;-70
2022/08/10 01:38:45;;;;;;;9.25;6.13;;;14.60;99.90;;;;;;4993111;28;20038;-70
2022/08/10 01:41:22;;;;;;;9.20;6.13;;;14.60;99.90;;;;;;5009251;28;20059;-70
2022/08/10 01:43:57;;;;;;;9.88;6.35;;;14.60;99.90;;;;;;4990331;28;20061;-70
2022/08/10 01:46:24;;;;;;;8.52;6.38;;;14.50;99.90;;;;;;4992410;28;20069;-70
2022/08/10 01:48:53;;;;;;;9.45;6.45;;;14.50;99.90;;;;;;5014165;28;20030;-70
2022/08/10 01:51:39;;;;;;;9.27;7.22;;;14.50;99.90;;;;;;4996935;28;20046;-70
2022/08/10 01:54:08;;;;;;;8.93;6.78;;;14.50;99.90;;;;;;4991619;28;20115;-70
2022/08/10 01:56:38;;;;;;;10.05;6.82;;;14.40;99.90;;;;;;5023650;28;20049;-70
2022/08/10 01:59:08;;;;;;;11.32;6.85;;;14.40;99.90;;;;;;4992323;28;20065;-70
2022/08/10 02:01:47;;;;;;;11.77;7.50;;;14.40;99.90;;;;;;4989678;28;20046;-70
2022/08/10 02:04:15;;;;;;;10.07;7.32;;;14.40;99.90;;;;;;4970934;28;20056;-70
2022/08/10 02:06:46;;;;;;;9.80;7.25;;;14.40;99.90;;;;;;5009192;28;20042;-70
2022/08/10 02:09:16;;;;;;;12.00;7.25;;;14.40;99.90;;;;;;4990152;28;20033;-70
2022/08/10 02:11:43;;;;;;;12.18;7.20;;;14.30;99.90;;;;;;4990540;28;20053;-70
2022/08/10 02:14:13;;;;;;;11.52;7.38;;;14.30;99.90;;;;;;5008448;28;20041;-70
2022/08/10 02:16:40;;;;;;;10.60;7.85;;;14.40;99.90;;;;;;4992646;28;20049;-70
2022/08/10 02:19:08;;;;;;;13.35;7.72;;;14.30;99.90;;;;;;5020713;28;20046;-70
2022/08/10 02:21:34;;;;;;;11.88;7.60;;;14.20;99.90;;;;;;5007077;28;20123;-70
2022/08/10 02:24:01;;;;;;;10.45;7.35;;;14.20;99.90;;;;;;4989405;28;20054;-70
2022/08/10 02:26:29;;;;;;;10.40;7.55;;;14.20;99.90;;;;;;4975840;28;20099;-70
2022/08/10 02:28:55;;;;;;;10.25;7.22;;;14.20;99.90;;;;;;5020815;28;20056;-70
2022/08/10 02:31:23;;;;;;;12.25;7.72;;;14.20;99.90;;;;;;5001765;28;20046;-70
2022/08/10 02:33:53;;;;;;;10.30;7.68;;;14.20;99.90;;;;;;5012996;28;20053;-70
2022/08/10 02:36:19;;;;;;;9.38;7.28;;;14.10;99.90;;;;;;4998092;28;20060;-69
2022/08/10 02:38:49;;;;;;;10.75;7.70;;;14.10;99.90;;;;;;5002889;28;20498;-70
2022/08/10 02:41:21;;;;;;;12.25;7.60;;;14.10;99.90;;;;;;4971170;28;20042;-70
2022/08/10 02:43:56;;;;;;;11.80;7.20;;;14.10;99.90;;;;;;5006140;28;20396;-70
2022/08/10 02:46:40;;;;;;;13.05;7.78;;;14.10;99.90;;;;;;4971497;28;20483;-70
2022/08/10 02:49:12;;;;;;;11.55;8.00;;;14.00;99.90;;;;;;4988798;28;20077;-70
2022/08/10 02:51:49;;;;;;;12.00;8.45;;;14.00;99.90;;;;;;4966952;28;20038;-70
2022/08/10 02:54:23;;;;;;;13.98;8.35;;;14.00;99.90;;;;;;4987675;28;20065;-70
2022/08/10 02:57:12;;;;;;;14.38;7.80;;;14.00;99.90;;;;;;4987104;28;20061;-70
2022/08/10 02:59:48;;;;;;;11.98;8.27;;;14.00;99.90;;;;;;4988902;28;20096;-70
2022/08/10 03:02:29;;;;;;;11.95;8.27;;;13.90;99.90;;;;;;4982277;28;20101;-70
2022/08/10 03:05:02;;;;;;;11.10;7.97;;;13.90;99.90;;;;;;5007362;28;20092;-70
2022/08/10 03:07:32;;;;;;;11.50;8.27;;;13.90;99.90;;;;;;5017847;28;20049;-70
2022/08/10 03:10:01;;;;;;;11.05;8.10;;;13.90;99.90;;;;;;5019791;28;20670;-70
2022/08/10 03:12:28;;;;;;;13.40;9.27;;;13.90;99.90;;;;;;5005875;28;20052;-70
2022/08/10 03:14:55;;;;;;;11.75;8.15;;;13.90;99.90;;;;;;5014138;28;20120;-70
2022/08/10 03:17:22;;;;;;;11.13;8.27;;;13.90;99.90;;;;;;5023570;28;20071;-70
2022/08/10 03:19:49;;;;;;;14.23;9.65;;;13.80;99.90;;;;;;5006643;28;20078;-70
2022/08/10 03:22:15;;;;;;;13.00;8.38;;;13.80;99.90;;;;;;5000813;28;20515;-70
2022/08/10 03:24:43;;;;;;;14.15;9.02;;;13.80;99.90;;;;;;5015754;28;20042;-70
2022/08/10 03:27:10;;;;;;;12.85;8.75;;;13.80;99.90;;;;;;5005386;28;20038;-70
2022/08/10 03:29:36;;;;;;;13.90;9.60;;;13.80;99.90;;;;;;4982566;28;20042;-70
2022/08/10 03:32:04;;;;;;;13.48;9.18;;;13.80;99.90;;;;;;4992291;28;20376;-70
2022/08/10 03:34:31;;;;;;;14.25;9.73;;;13.80;99.90;;;;;;4998563;28;20045;-71
2022/08/10 03:36:57;;;;;;;14.48;9.55;;;13.70;99.90;;;;;;5003062;28;20038;-70
2022/08/10 03:39:23;;;;;;;16.15;9.65;;;13.70;99.90;;;;;;5004645;28;20037;-70
2022/08/10 03:41:54;;;;;;;14.60;9.23;;;13.70;99.90;;;;;;5001566;28;20046;-70
2022/08/10 03:44:24;;;;;;;15.77;9.73;;;13.70;99.90;;;;;;5017960;28;20606;-70
2022/08/10 03:46:52;;;;;;;12.52;9.05;;;13.70;99.90;;;;;;5023420;28;20046;-70
2022/08/10 03:49:19;;;;;;;14.50;8.90;;;13.70;99.90;;;;;;5018822;28;20050;-70
2022/08/10 03:51:48;;;;;;;15.40;9.57;;;13.60;99.90;;;;;;5031054;28;20045;-70
2022/08/10 03:54:15;;;;;;;12.95;9.30;;;13.60;99.90;;;;;;5001299;28;20516;-70
2022/08/10 03:56:41;;;;;;;14.90;9.68;;;13.60;99.90;;;;;;5023042;28;20587;-70
2022/08/10 03:59:11;;;;;;;14.85;9.27;;;13.60;99.90;;;;;;5002138;28;20052;-70
2022/08/10 04:01:37;;;;;;;14.85;8.95;;;13.60;99.90;;;;;;5020950;28;20038;-70
2022/08/10 04:04:03;;;;;;;14.52;10.00;;;13.60;99.90;;;;;;5016897;28;20046;-70
2022/08/10 04:06:29;;;;;;;13.68;9.65;;;13.60;99.90;;;;;;4982992;28;20044;-70
2022/08/10 04:08:55;;;;;;;15.88;9.43;;;13.50;99.90;;;;;;5000669;28;20041;-70
2022/08/10 04:11:20;;;;;;;13.90;9.85;;;13.60;99.90;;;;;;5000654;28;20092;-70
2022/08/10 04:13:46;;;;;;;15.07;11.02;;;13.50;99.90;;;;;;5022694;28;20498;-70
2022/08/10 04:16:12;;;;;;;14.95;9.20;;;13.50;99.90;;;;;;4983499;28;20113;-70
2022/08/10 04:18:37;;;;;;;15.23;9.23;;;13.50;99.90;;;;;;5016891;28;20620;-70
2022/08/10 04:21:11;;;;;;;16.10;9.70;;;13.50;99.90;;;;;;4999906;28;20046;-70
2022/08/10 04:23:42;;;;;;;14.73;9.80;;;13.50;99.90;;;;;;5006090;28;20084;-70
2022/08/10 04:26:09;;;;;;;14.27;9.38;;;13.50;99.90;;;;;;4988372;28;20038;-70
2022/08/10 04:28:35;;;;;;;15.30;9.43;;;13.50;99.90;;;;;;5020293;28;20478;-70
2022/08/10 04:31:05;;;;;;;12.48;8.90;;;13.50;99.90;;;;;;4983723;28;20068;-70
2022/08/10 04:33:32;;;;;;;15.27;9.95;;;13.50;99.90;;;;;;5004840;28;20431;-70
2022/08/10 04:35:59;;;;;;;16.50;10.00;;;13.40;99.90;;;;;;5003691;28;20045;-70
2022/08/10 04:38:27;;;;;;;12.93;8.43;;;13.40;99.90;;;;;;4987795;28;20096;-70
2022/08/10 04:40:53;;;;;;;18.20;9.35;;;13.40;99.90;;;;;;5020495;28;20038;-70
2022/08/10 04:43:19;;;;;;;15.70;9.88;;;13.50;99.90;;;;;;5004778;28;20133;-70
2022/08/10 04:45:46;;;;;;;15.75;10.05;;;13.50;99.90;;;;;;5004435;28;20631;-70
2022/08/10 04:48:11;;;;;;;17.65;10.57;;;13.40;99.90;;;;;;4971261;28;20261;-70
2022/08/10 04:50:37;;;;;;;15.55;9.75;;;13.50;99.90;;;;;;4988804;28;20445;-70
2022/08/10 04:53:03;;;;;;;16.42;10.00;;;13.40;99.90;;;;;;5018361;28;20072;-70
2022/08/10 04:55:29;;;;;;;16.33;10.18;;;13.40;99.90;;;;;;5006950;28;20049;-70
2022/08/10 04:57:54;;;;;;;14.57;9.70;;;13.40;99.90;;;;;;4986176;28;20034;-70
2022/08/10 05:00:20;;;;;;;16.33;9.35;;;13.40;99.90;;;;;;5006501;28;20030;-70
2022/08/10 05:02:46;;;;;;;17.40;10.43;;;13.40;99.90;;;;;;4990776;28;20041;-70
2022/08/10 05:05:11;;;;;;;14.38;9.63;;;13.40;99.90;;;;;;4990072;28;20454;-70
2022/08/10 05:07:37;;;;;;;15.68;10.10;;;13.40;99.90;;;;;;5006079;28;20048;-70
2022/08/10 05:10:04;;;;;;;14.50;9.82;;;13.40;99.90;;;;;;5004681;28;20403;-70
2022/08/10 05:12:34;;;;;;;15.20;9.52;;;13.40;99.90;;;;;;5003266;28;20034;-70
2022/08/10 05:14:59;;;;;;;16.90;10.07;;;13.40;99.90;;;;;;4991549;28;20104;-70
2022/08/10 05:17:25;;;;;;;15.95;10.15;;;13.50;99.90;;;;;;5008223;28;20493;-70
2022/08/10 05:19:51;;;;;;;16.52;11.57;;;13.50;99.90;;;;;;4991872;28;20030;-70
2022/08/10 05:22:17;;;;;;;14.85;10.15;;;13.50;99.90;;;;;;5013194;28;20037;-70
2022/08/10 05:24:42;;;;;;;15.43;10.90;;;13.60;99.90;;;;;;4969216;28;20498;-70
2022/08/10 05:27:08;;;;;;;17.65;10.98;;;13.60;99.90;;;;;;4993802;28;20584;-70
2022/08/10 05:29:34;;;;;;;17.15;10.30;;;13.60;99.90;;;;;;4976845;28;20042;-70
2022/08/10 05:32:00;;;;;;;18.00;10.20;;;13.60;99.90;;;;;;5010256;28;20046;-70
2022/08/10 05:34:27;;;;;;;19.75;11.50;;;13.70;99.90;;;;;;4990738;28;20030;-70
2022/08/10 05:36:54;;;;;;;16.40;10.45;;;13.70;99.90;;;;;;5024390;28;20479;-70
2022/08/10 05:39:21;;;;;;;18.23;10.98;;;13.80;99.90;;;;;;4991387;28;20491;-70
2022/08/10 05:41:50;;;;;;;17.60;10.52;;;13.80;99.90;;;;;;5005377;28;20372;-70
2022/08/10 05:44:16;;;;;;;16.52;11.23;;;13.80;99.90;;;;;;5005749;28;20041;-70
2022/08/10 05:46:42;;;;;;;23.30;10.85;;;13.90;99.90;;;;;;4990958;28;20518;-70
2022/08/10 05:49:07;;;;;;;18.20;11.20;;;14.00;99.90;;;;;;5009363;28;20048;-70
2022/08/10 05:51:33;;;;;;;15.80;10.95;;;14.00;99.90;;;;;;4998183;28;20037;-70
2022/08/10 05:53:59;;;;;;;19.52;11.23;;;14.10;99.90;;;;;;4993473;28;20145;-71
2022/08/10 05:56:25;;;;;;;17.88;10.70;;;14.10;99.90;;;;;;4991700;28;20136;-71
2022/08/10 05:58:51;;;;;;;18.95;11.30;;;14.20;99.90;;;;;;5008949;28;20036;-71
2022/08/10 06:01:19;;;;;;;18.73;11.43;;;14.20;99.90;;;;;;5011804;28;20033;-71
2022/08/10 06:03:52;;;;;;;17.40;9.68;;;14.30;99.90;;;;;;5024557;28;20457;-71
2022/08/10 06:06:20;;;;;;;17.98;11.63;;;14.30;99.90;;;;;;5010843;28;20042;-71
2022/08/10 06:08:49;;;;;;;21.50;10.82;;;14.30;99.90;;;;;;5007440;28;20053;-70
2022/08/10 06:11:16;;;;;;;17.08;10.90;;;14.40;99.90;;;;;;4994105;28;20034;-70
2022/08/10 06:16:32;;;;;;;16.08;10.70;;;14.50;99.90;;;;;;5015349;28;20148;-70
2022/08/10 06:18:59;;;;;;;15.60;10.68;;;14.60;99.90;;;;;;4997476;28;20034;-70
2022/08/10 06:21:26;;;;;;;14.95;10.55;;;14.60;99.90;;;;;;4988446;28;20066;-70
2022/08/10 06:23:53;;;;;;;15.90;10.55;;;14.70;99.90;;;;;;4993982;28;20052;-70
2022/08/10 06:26:19;;;;;;;16.38;10.70;;;14.80;99.90;;;;;;5007103;28;20049;-70
2022/08/10 06:29:05;;;;;;;15.43;10.27;;;14.90;99.90;;;;;;4994856;28;20100;-70
2022/08/10 06:31:38;;;;;;;14.63;9.93;;;15.00;99.90;;;;;;4986882;28;20034;-70
2022/08/10 06:34:06;;;;;;;18.85;10.63;;;15.10;99.90;;;;;;5009514;28;20483;-70
2022/08/10 06:36:32;;;;;;;16.10;10.75;;;15.30;99.90;;;;;;5003051;28;20327;-70
2022/08/10 06:38:58;;;;;;;16.23;10.75;;;15.40;99.90;;;;;;5000674;28;20100;-70
2022/08/10 06:41:27;;;;;;;14.50;9.70;;;15.50;99.90;;;;;;5014964;28;20041;-70
2022/08/10 06:44:00;;;;;;;17.23;9.90;;;15.60;99.90;;;;;;4978391;28;20041;-70
2022/08/10 06:46:29;;;;;;;12.85;9.13;;;15.80;99.90;;;;;;5027838;28;20121;-70
2022/08/10 06:49:00;;;;;;;14.30;9.60;;;15.90;99.90;;;;;;4995656;28;20048;-70
2022/08/10 06:51:33;;;;;;;11.98;8.85;;;16.00;99.90;;;;;;5027297;28;20046;-70
2022/08/10 06:54:02;;;;;;;12.88;8.63;;;16.20;99.90;;;;;;5027330;28;20100;-70
2022/08/10 06:56:32;;;;;;;12.65;9.07;;;16.30;99.90;;;;;;5025648;28;20030;-70
2022/08/10 06:59:05;;;;;;;12.75;8.88;;;16.40;99.90;;;;;;5011934;28;20033;-70
2022/08/10 07:01:35;;;;;;;15.77;8.70;;;16.50;99.90;;;;;;5026888;28;20037;-70
2022/08/10 07:04:21;;;;;;;10.40;8.10;;;16.60;99.90;;;;;;4994628;28;20064;-70
2022/08/10 07:06:48;;;;;;;14.60;9.07;;;16.80;99.90;;;;;;5011350;28;20096;-70
2022/08/10 07:09:16;;;;;;;12.32;9.02;;;17.00;99.90;;;;;;4977615;28;20514;-70
2022/08/10 07:11:47;;;;;;;11.18;8.15;;;17.20;99.90;;;;;;4987650;28;20033;-70
2022/08/10 07:14:15;;;;;;;10.90;8.10;;;17.30;99.90;;;;;;5011694;28;20037;-70
2022/08/10 07:16:43;;;;;;;13.20;7.32;;;17.50;99.90;;;;;;5011474;28;20048;-70
2022/08/10 07:19:10;;;;;;;11.35;7.32;;;17.60;99.90;;;;;;5003684;28;20050;-70
2022/08/10 07:21:42;;;;;;;10.60;6.53;;;17.90;99.90;;;;;;5010125;28;20190;-70
2022/08/10 07:24:13;;;;;;;8.05;6.60;;;18.00;99.90;;;;;;5026479;28;20121;-71
2022/08/10 07:26:49;;;;;;;8.75;6.10;;;18.20;99.90;;;;;;5026614;28;20511;-70
2022/08/10 07:29:17;;;;;;;9.80;6.40;;;18.50;99.90;;;;;;5026230;28;20038;-70
2022/08/10 07:31:43;;;;;;;9.30;6.97;;;18.70;99.90;;;;;;4993631;28;20042;-70
2022/08/10 07:34:13;;;;;;;10.95;6.72;;;18.80;99.90;;;;;;4993246;28;20125;-70
2022/08/10 07:36:41;;;;;;;11.07;6.55;;;18.90;99.90;;;;;;4988746;28;20075;-71
2022/08/10 07:39:09;;;;;;;12.63;6.72;;;19.10;99.90;;;;;;4977538;28;20072;-71
2022/08/10 07:41:39;;;;;;;7.95;6.70;;;19.20;99.90;;;;;;5026348;28;20064;-71
2022/08/10 07:44:08;;;;;;;9.65;5.75;;;19.40;99.90;;;;;;5009796;28;20045;-70
2022/08/10 07:46:40;;;;;;;9.98;6.70;;;19.60;99.90;;;;;;4976860;28;20034;-71
2022/08/10 07:49:11;;;;;;;6.95;5.40;;;19.90;99.90;;;;;;5002490;28;20136;-70
2022/08/10 07:51:37;;;;;;;9.73;6.50;;;20.00;99.90;;;;;;5007281;28;20048;-70
2022/08/10 07:54:07;;;;;;;9.07;6.43;;;20.10;99.90;;;;;;4993549;28;20042;-71
2022/08/10 07:56:36;;;;;;;9.02;6.30;;;20.10;99.90;;;;;;4993374;28;20038;-70
2022/08/10 07:59:15;;;;;;;8.88;5.80;;;20.30;99.90;;;;;;4977696;28;20053;-71
2022/08/10 08:01:49;;;;;;;9.85;6.25;;;20.50;99.90;;;;;;4993411;28;20046;-70
2022/08/10 08:04:17;;;;;;;9.70;5.85;;;20.60;99.90;;;;;;5010293;28;20128;-70
2022/08/10 08:06:44;;;;;;;11.60;6.82;;;20.60;99.90;;;;;;5008568;28;20046;-70
2022/08/10 08:09:10;;;;;;;7.95;5.90;;;20.70;99.90;;;;;;5010201;28;20046;-70
2022/08/10 08:11:40;;;;;;;8.65;5.85;;;20.80;99.90;;;;;;5001551;28;20034;-70
2022/08/10 08:14:07;;;;;;;10.98;5.95;;;20.90;99.90;;;;;;4998391;28;20042;-70
2022/08/10 08:16:36;;;;;;;9.18;5.80;;;21.00;99.90;;;;;;5009242;28;20092;-71
2022/08/10 08:19:02;;;;;;;8.27;5.07;;;21.10;99.90;;;;;;4993546;28;20491;-70
2022/08/10 08:21:29;;;;;;;8.80;5.63;;;21.20;99.90;;;;;;5010902;28;20112;-72
2022/08/10 08:23:56;;;;;;;6.70;5.60;;;21.30;99.90;;;;;;5010560;28;20046;-70
2022/08/10 08:26:24;;;;;;;6.50;5.20;;;21.40;99.90;;;;;;4992701;28;20083;-71
2022/08/10 08:28:51;;;;;;;8.05;5.72;;;21.50;99.90;;;;;;4992850;28;20073;-70
2022/08/10 08:31:19;;;;;;;11.68;6.32;;;21.70;99.90;;;;;;5010705;28;20065;-73
2022/08/10 08:33:45;;;;;;;12.07;6.13;;;21.70;99.90;;;;;;4992834;28;20038;-70
2022/08/10 08:36:15;;;;;;;7.35;5.78;;;21.80;99.90;;;;;;4978520;28;20045;-71
2022/08/10 08:38:42;;;;;;;5.80;5.05;;;22.00;99.90;;;;;;4991324;28;20555;-71
2022/08/10 08:41:26;;;;;;;6.50;5.07;;;22.10;99.90;;;;;;5009506;28;20543;-71
2022/08/10 08:43:52;;;;;;;5.82;4.65;;;22.20;99.90;;;;;;5010133;28;20119;-71
2022/08/10 08:46:49;;;;;;;7.47;5.18;;;22.30;99.90;;;;;;4977474;28;20073;-72
2022/08/10 08:49:40;;;;;;;5.68;4.00;;;22.40;99.90;;;;;;4995534;28;20411;-71
2022/08/10 08:52:31;;;;;;;9.25;5.05;;;22.70;99.90;;;;;;4980968;28;20054;-71
2022/08/10 08:55:34;;;;;;;6.50;4.45;;;22.80;99.90;;;;;;5011329;28;20521;-71
2022/08/10 08:58:26;;;;;;;6.15;4.40;;;23.00;99.90;;;;;;4996088;28;20038;-71
2022/08/10 09:01:17;;;;;;;7.45;4.10;;;23.20;99.90;;;;;;4982601;28;20041;-71
2022/08/10 09:04:08;;;;;;;5.28;4.00;;;23.20;99.90;;;;;;4994526;28;20041;-71
2022/08/10 09:06:56;;;;;;;7.00;4.23;;;23.50;99.90;;;;;;5026888;28;20067;-71
2022/08/10 09:09:30;;;;;;;6.35;3.70;;;23.70;99.90;;;;;;5013923;28;20342;-71
2022/08/10 09:12:33;;;;;;;4.53;3.75;;;23.80;99.90;;;;;;5013484;28;20566;-71
2022/08/10 09:15:04;;;;;;;8.63;4.47;;;23.90;99.90;;;;;;4995113;28;20041;-70
2022/08/10 09:17:50;;;;;;;5.43;4.00;;;24.00;99.90;;;;;;5007286;28;20109;-69
2022/08/10 09:20:32;;;;;;;6.60;3.35;;;24.20;99.90;;;;;;4980489;28;20518;-70
2022/08/10 09:23:07;;;;;;;4.97;2.90;;;24.30;99.90;;;;;;4992874;28;20065;-69
2022/08/10 09:25:43;;;;;;;6.30;3.38;;;24.30;99.90;;;;;;4991904;28;20097;-70
2022/08/10 09:28:18;;;;;;;6.88;3.45;;;24.40;99.90;;;;;;4986406;28;20128;-71
2022/08/10 09:30:48;;;;;;;6.68;3.60;;;24.50;99.90;;;;;;4986203;28;20045;-69
2022/08/10 09:33:22;;;;;;;5.97;3.22;;;24.70;99.90;;;;;;5024009;28;20048;-69
2022/08/10 09:36:07;;;;;;;9.98;3.95;;;24.90;99.90;;;;;;4991828;28;20041;-68
2022/08/10 09:38:45;;;;;;;5.72;3.55;;;24.90;99.90;;;;;;5008441;28;20034;-70
2022/08/10 09:41:29;;;;;;;4.07;2.88;;;25.10;99.70;;;;;;4990043;28;20038;-70
2022/08/10 09:44:26;;;;;;;5.00;2.75;;;25.20;99.40;;;;;;4996198;28;20041;-72
2022/08/10 09:47:17;;;;;;;6.07;3.38;;;25.30;98.80;;;;;;5006011;28;20125;-72
2022/08/10 09:50:14;;;;;;;4.68;2.78;;;25.40;98.80;;;;;;5000626;28;20034;-70
2022/08/10 09:52:52;;;;;;;5.72;2.67;;;25.50;96.80;;;;;;5009508;28;20410;-71
2022/08/10 09:55:53;;;;;;;6.60;3.08;;;25.60;97.30;;;;;;5007209;28;20042;-71
2022/08/10 09:58:41;;;;;;;4.55;2.70;;;25.70;97.40;;;;;;4966368;28;20485;-71
2022/08/10 10:01:58;;;;;;;4.10;2.80;;;25.90;96.50;;;;;;5012633;28;20044;-71
2022/08/10 10:04:32;;;;;;;5.68;3.30;;;26.10;94.80;;;;;;4949813;28;20483;-70
2022/08/10 10:07:02;;;;;;;5.13;3.70;;;26.20;94.70;;;;;;5012722;28;20642;-71
2022/08/10 10:09:48;;;;;;;6.03;2.80;;;26.30;95.50;;;;;;5007150;28;20042;-71
2022/08/10 10:12:34;;;;;;;3.67;2.90;;;26.40;93.60;;;;;;4996321;28;20046;-72
2022/08/10 10:15:32;;;;;;;7.03;2.67;;;26.60;93.50;;;;;;4999926;28;20041;-71
2022/08/10 10:18:01;;;;;;;2.92;2.30;;;26.80;92.20;;;;;;4969034;28;20046;-70
2022/08/10 10:20:32;;;;;;;6.18;2.53;;;26.90;93.40;;;;;;4969163;28;20786;-73
2022/08/10 10:23:23;;;;;;;4.40;2.67;;;27.10;93.00;;;;;;4984085;28;20072;-74
2022/08/10 10:26:10;;;;;;;4.82;2.58;;;27.20;91.40;;;;;;4984759;28;20132;-73
2022/08/10 10:29:00;;;;;;;4.22;2.88;;;27.30;90.60;;;;;;4983819;28;20034;-71
2022/08/10 10:31:41;;;;;;;4.40;2.25;;;27.40;90.20;;;;;;4965640;28;20494;-71
2022/08/10 10:34:36;;;;;;;3.50;1.90;;;27.50;84.50;;;;;;5013963;28;20099;-71
2022/08/10 10:37:06;;;;;;;5.38;2.17;;;27.60;82.10;;;;;;4982114;28;20152;-71
2022/08/10 10:39:34;;;;;;;2.47;1.88;;;27.70;85.40;;;;;;4982943;28;20104;-71
2022/08/10 10:42:18;;;;;;;3.83;2.30;;;27.80;86.10;;;;;;5001004;28;20392;-72
2022/08/10 10:45:04;;;;;;;5.63;2.10;;;27.90;84.90;;;;;;4984472;28;20397;-72
2022/08/10 10:48:01;;;;;;;4.88;2.00;;;28.00;80.80;;;;;;4956667;28;20173;-71
2022/08/10 10:50:55;;;;;;;3.03;1.70;;;28.00;78.60;;;;;;4967898;28;20148;-71
2022/08/10 10:53:34;;;;;;;4.40;1.73;;;28.10;78.30;;;;;;4977702;28;20049;-71
2022/08/10 10:56:30;;;;;;;2.72;1.80;;;28.20;79.80;;;;;;4985146;28;20042;-72
2022/08/10 10:59:08;;;;;;;6.22;2.08;;;28.30;75.80;;;;;;5000773;28;20042;-71
2022/08/10 11:01:51;;;;;;;3.28;1.80;;;28.50;75.70;;;;;;4985259;28;20848;-72
2022/08/10 11:04:37;;;;;;;2.70;1.83;;;28.60;75.90;;;;;;4985465;28;20041;-70
2022/08/10 11:07:22;;;;;;;3.97;2.03;;;28.50;73.00;;;;;;4966484;28;20093;-71
2022/08/10 11:09:56;;;;;;;2.00;1.73;;;28.60;74.90;;;;;;4985563;28;20527;-71
2022/08/10 11:12:45;;;;;;;5.82;1.90;;;28.60;74.30;;;;;;4983921;28;20045;-71
2022/08/10 11:15:17;;;;;;;1.85;1.52;;;28.60;73.30;;;;;;4980698;28;20100;-71
2022/08/10 11:17:51;;;;;;;3.83;1.67;;;28.50;72.70;;;;;;4968349;28;20498;-71
2022/08/10 11:20:37;;;;;;;3.25;1.90;;;28.60;72.40;;;;;;4965624;28;20044;-71
2022/08/10 11:23:17;;;;;;;1.95;1.60;;;28.70;73.20;;;;;;4997788;28;20057;-72
2022/08/10 11:25:54;;;;;;;1.65;1.55;;;28.80;72.10;;;;;;4999934;28;20046;-71
2022/08/10 11:28:47;;;;;;;3.80;1.75;;;28.90;71.90;;;;;;5001777;28;20046;-72
2022/08/10 11:31:36;;;;;;;4.55;1.92;;;29.00;69.60;;;;;;4984000;28;20414;-71
2022/08/10 11:34:11;;;;;;;2.85;1.88;;;29.00;70.00;;;;;;4982510;28;20541;-72
2022/08/10 11:37:18;;;;;;;2.47;1.58;;;29.10;70.10;;;;;;4985309;28;20111;-74
2022/08/10 11:40:19;;;;;;;4.55;1.40;;;29.10;68.30;;;;;;4976481;28;20129;-73
2022/08/10 11:42:54;;;;;;;2.60;1.70;;;29.20;68.20;;;;;;5000273;28;20038;-75
2022/08/10 11:45:33;;;;;;;3.05;1.70;;;29.20;67.00;;;;;;4985853;28;20079;-74
2022/08/10 11:48:24;;;;;;;3.83;1.42;;;29.30;65.80;;;;;;5004658;28;20482;-75
2022/08/10 11:50:59;;;;;;;2.03;1.50;;;29.30;67.00;;;;;;4971292;28;20053;-74
2022/08/10 11:53:52;;;;;;;1.83;1.60;;;29.40;65.70;;;;;;5003328;28;20038;-74
2022/08/10 11:56:28;;;;;;;1.70;1.48;;;29.60;65.60;;;;;;4986674;28;20511;-75
2022/08/10 12:01:41;;;;;;;5.18;1.80;;;29.90;66.40;;;;;;5005470;28;20093;-75
2022/08/10 12:04:08;;;;;;;4.15;1.60;;;30.10;67.00;;;;;;5003336;28;20112;-75
2022/08/10 12:06:36;;;;;;;4.85;1.75;;;30.10;65.60;;;;;;5005323;28;20738;-75
2022/08/10 12:09:06;;;;;;;2.45;1.60;;;30.00;64.10;;;;;;4987666;28;20174;-74
2022/08/10 12:11:33;;;;;;;3.10;1.45;;;30.00;65.00;;;;;;5005932;28;20045;-74
2022/08/10 12:14:07;;;;;;;3.47;1.67;;;30.00;65.10;;;;;;5007890;28;20041;-75
2022/08/10 12:16:38;;;;;;;1.60;1.45;;;30.00;64.50;;;;;;4988488;28;20048;-75
2022/08/10 12:19:15;;;;;;;2.10;1.60;;;30.10;64.50;;;;;;4987466;28;20038;-75
2022/08/10 12:21:54;;;;;;;3.38;1.60;;;30.00;63.20;;;;;;5005465;28;20439;-75
2022/08/10 12:24:47;;;;;;;4.40;1.75;;;30.10;63.00;;;;;;4986971;28;20617;-75
2022/08/10 12:27:20;;;;;;;5.38;1.58;;;30.10;62.90;;;;;;4986586;28;20057;-74
2022/08/10 12:29:57;;;;;;;2.67;1.70;;;30.20;63.60;;;;;;5005427;28;20136;-75
2022/08/10 12:32:48;;;;;;;2.83;1.50;;;30.30;62.80;;;;;;5002420;28;20099;-75
2022/08/10 12:35:31;;;;;;;5.53;1.77;;;30.30;63.90;;;;;;5004569;28;20089;-76
2022/08/10 12:38:26;;;;;;;4.75;1.80;;;30.40;63.40;;;;;;5004761;28;20030;-75
2022/08/10 12:41:14;;;;;;;3.95;1.67;;;30.40;63.00;;;;;;5014879;28;20128;-75
2022/08/10 12:43:45;;;;;;;4.35;1.88;;;30.50;63.40;;;;;;5013351;28;20084;-73
2022/08/10 12:46:35;;;;;;;5.60;1.80;;;30.50;61.90;;;;;;4983066;28;20045;-74
2022/08/10 12:49:28;;;;;;;3.15;1.90;;;30.60;61.00;;;;;;4967514;28;20046;-74
2022/08/10 12:52:15;;;;;;;2.42;1.50;;;30.60;62.70;;;;;;4999552;28;20247;-74
2022/08/10 12:54:43;;;;;;;4.65;1.70;;;30.70;62.40;;;;;;5000905;28;20396;-74
2022/08/10 12:57:17;;;;;;;3.65;1.40;;;30.60;62.00;;;;;;4981134;28;20068;-73
2022/08/10 12:59:50;;;;;;;4.32;1.60;;;30.70;62.30;;;;;;4998265;28;20050;-74
2022/08/10 13:02:26;;;;;;;5.63;1.95;;;30.80;62.20;;;;;;4985348;28;20049;-75
2022/08/10 13:04:55;;;;;;;2.38;1.40;;;30.90;62.00;;;;;;5001882;28;20566;-74
2022/08/10 13:07:29;;;;;;;4.45;1.90;;;31.00;62.40;;;;;;4985313;28;20056;-75
2022/08/10 13:10:07;;;;;;;2.63;1.60;;;31.10;61.00;;;;;;5018152;28;20069;-75
2022/08/10 13:12:41;;;;;;;2.88;1.50;;;31.30;61.30;;;;;;5013960;28;20471;-73
2022/08/10 13:15:24;;;;;;;2.10;1.55;;;31.30;61.30;;;;;;4984435;28;20049;-74
2022/08/10 13:17:54;;;;;;;2.15;1.52;;;31.30;61.30;;;;;;5000173;28;20042;-74